Time;durP1;ratioP1;P1;durP2;ratioP2;P2;SDS_P1;SDS_P2;PMS_P1;PMS_P2;Temp;Humidity;BMP_temperature;BMP_pressure;BME280_temperature;BME280_humidity;BME280_pressure;Samples;Min_cycle;Max_cycle;Signal;HPM_P1;HPM_P2
2021/03/17 00:00:32;;;;;;;3.00;1.67;;;15.40;62.20;;;;;;5045974;28;20110;-37
2021/03/17 00:02:59;;;;;;;1.77;1.30;;;15.40;62.30;;;;;;5080997;28;20032;-37
2021/03/17 00:05:36;;;;;;;1.38;1.15;;;15.40;62.10;;;;;;5086104;28;20044;-37
2021/03/17 00:08:02;;;;;;;2.70;1.48;;;15.40;62.10;;;;;;5086132;28;20166;-36
2021/03/17 00:10:38;;;;;;;2.03;1.33;;;15.40;62.10;;;;;;5085926;28;20036;-37
2021/03/17 00:13:04;;;;;;;1.83;1.27;;;15.40;62.20;;;;;;5069087;28;20067;-37
2021/03/17 00:15:32;;;;;;;1.58;1.33;;;15.40;62.20;;;;;;5086019;28;20021;-36
2021/03/17 00:17:59;;;;;;;1.90;1.23;;;15.30;62.20;;;;;;5085887;28;20048;-36
2021/03/17 00:20:25;;;;;;;3.90;1.70;;;15.30;62.30;;;;;;5085417;28;20024;-34
2021/03/17 00:22:52;;;;;;;2.17;1.37;;;15.30;62.20;;;;;;5085838;28;20029;-37
2021/03/17 00:25:20;;;;;;;2.58;1.40;;;15.30;62.40;;;;;;5085628;28;20028;-36
2021/03/17 00:27:46;;;;;;;2.25;1.45;;;15.30;62.30;;;;;;5067630;28;20021;-36
2021/03/17 00:30:13;;;;;;;2.08;1.30;;;15.30;62.50;;;;;;5065359;28;20060;-37
2021/03/17 00:32:39;;;;;;;2.55;1.50;;;15.30;62.50;;;;;;5051169;28;20028;-37
2021/03/17 00:35:06;;;;;;;2.13;1.38;;;15.30;62.50;;;;;;5045674;28;20037;-37
2021/03/17 00:37:32;;;;;;;2.47;1.48;;;15.30;62.60;;;;;;5045487;28;20036;-37
2021/03/17 00:39:58;;;;;;;2.22;1.50;;;15.30;62.60;;;;;;5060904;28;20029;-36
2021/03/17 00:42:24;;;;;;;1.95;1.40;;;15.30;62.50;;;;;;5047297;28;20021;-37
2021/03/17 00:44:50;;;;;;;3.05;1.70;;;15.30;62.60;;;;;;5063872;28;20033;-37
2021/03/17 00:47:17;;;;;;;2.42;1.63;;;15.30;62.60;;;;;;5046879;28;20035;-36
2021/03/17 00:49:43;;;;;;;1.92;1.67;;;15.30;62.60;;;;;;5045264;28;20097;-34
2021/03/17 00:52:09;;;;;;;2.17;1.20;;;15.30;62.60;;;;;;5045039;28;20033;-37
2021/03/17 00:54:35;;;;;;;2.10;1.40;;;15.30;62.60;;;;;;5045318;28;20029;-37
2021/03/17 00:57:01;;;;;;;2.05;1.35;;;15.20;62.60;;;;;;5045165;28;20085;-37
2021/03/17 00:59:30;;;;;;;1.67;1.17;;;15.20;62.50;;;;;;5045205;28;20025;-37
2021/03/17 01:01:56;;;;;;;1.73;1.20;;;15.20;62.40;;;;;;5044653;28;20037;-37
2021/03/17 01:04:23;;;;;;;2.45;1.45;;;15.20;62.60;;;;;;5045218;28;20071;-37
2021/03/17 01:06:49;;;;;;;3.45;1.40;;;15.20;62.50;;;;;;5027359;28;20086;-36
2021/03/17 01:09:16;;;;;;;2.38;1.30;;;15.20;62.50;;;;;;5044942;28;20025;-37
2021/03/17 01:11:42;;;;;;;1.98;1.13;;;15.20;62.50;;;;;;5044331;28;20078;-34
2021/03/17 01:14:08;;;;;;;2.53;1.27;;;15.20;62.40;;;;;;5044906;28;20526;-36
2021/03/17 01:16:35;;;;;;;2.03;1.35;;;15.20;62.50;;;;;;5044940;28;20080;-37
2021/03/17 01:19:01;;;;;;;1.90;1.20;;;15.20;62.60;;;;;;5044878;28;20085;-36
2021/03/17 01:21:27;;;;;;;1.90;1.30;;;15.20;62.70;;;;;;5044490;28;20059;-37
2021/03/17 01:23:53;;;;;;;1.60;1.20;;;15.20;62.70;;;;;;5063079;28;20037;-37
2021/03/17 01:26:19;;;;;;;1.60;1.23;;;15.20;62.70;;;;;;5078845;28;20021;-37
2021/03/17 01:28:45;;;;;;;1.65;1.20;;;15.20;62.70;;;;;;5064529;28;20029;-37
2021/03/17 01:31:11;;;;;;;2.05;1.33;;;15.10;62.70;;;;;;5064131;28;20036;-37
2021/03/17 01:33:38;;;;;;;1.50;1.25;;;15.10;62.70;;;;;;5064480;28;20056;-37
2021/03/17 01:36:04;;;;;;;1.75;1.27;;;15.10;62.70;;;;;;5057421;28;20021;-37
2021/03/17 01:38:30;;;;;;;1.60;1.30;;;15.10;62.80;;;;;;5060109;28;20097;-37
2021/03/17 01:40:57;;;;;;;2.42;1.20;;;15.10;63.00;;;;;;5064037;28;20060;-37
2021/03/17 01:43:23;;;;;;;1.70;1.35;;;15.10;62.90;;;;;;5064051;28;20037;-37
2021/03/17 01:45:50;;;;;;;2.15;1.15;;;15.10;62.80;;;;;;5046672;28;20028;-37
2021/03/17 01:48:16;;;;;;;1.65;1.10;;;15.10;62.80;;;;;;5064129;28;20036;-37
2021/03/17 01:50:44;;;;;;;2.72;1.20;;;15.10;62.80;;;;;;5046212;28;20521;-41
2021/03/17 01:53:13;;;;;;;1.70;1.20;;;15.10;62.70;;;;;;5064015;28;20784;-37
2021/03/17 01:55:39;;;;;;;2.30;1.23;;;15.10;62.80;;;;;;5063777;28;20043;-37
2021/03/17 01:58:06;;;;;;;1.67;1.08;;;15.10;62.80;;;;;;5026587;28;20061;-37
2021/03/17 02:00:32;;;;;;;2.75;1.48;;;15.10;62.80;;;;;;5043846;28;20030;-37
2021/03/17 02:02:59;;;;;;;1.55;0.82;;;15.10;62.80;;;;;;5043705;28;20045;-37
2021/03/17 02:05:40;;;;;;;1.58;1.17;;;15.10;62.80;;;;;;5043959;28;20036;-37
2021/03/17 02:08:07;;;;;;;2.78;1.00;;;15.10;62.70;;;;;;5044019;28;20072;-37
2021/03/17 02:10:33;;;;;;;;;;;15.10;62.70;;;;;;5044216;28;20029;-37
2021/03/17 02:13:03;;;;;;;1.80;1.15;;;15.10;62.80;;;;;;5043584;28;19921;-37
2021/03/17 02:16:00;;;;;;;1.38;1.20;;;15.00;62.90;;;;;;5043881;28;20545;-36
2021/03/17 02:18:42;;;;;;;1.55;0.95;;;15.10;62.90;;;;;;5043634;28;20604;-37
2021/03/17 02:21:18;;;;;;;1.83;1.15;;;15.00;62.90;;;;;;5043568;28;20517;-37
2021/03/17 02:23:53;;;;;;;1.38;1.13;;;15.10;62.90;;;;;;5043307;28;20059;-35
2021/03/17 02:26:51;;;;;;;1.50;1.08;;;15.00;63.00;;;;;;5032229;28;20017;-34
2021/03/17 02:29:51;;;;;;;1.85;1.08;;;15.00;63.00;;;;;;5063282;28;20025;-39
2021/03/17 02:32:38;;;;;;;1.50;0.95;;;15.00;62.90;;;;;;5033507;28;20022;-35
2021/03/17 02:35:08;;;;;;;1.60;1.10;;;15.00;63.00;;;;;;5054042;28;20051;-36
2021/03/17 02:37:36;;;;;;;1.00;0.88;;;15.00;63.00;;;;;;5063303;28;20033;-36
2021/03/17 02:40:05;;;;;;;1.35;0.90;;;15.00;63.00;;;;;;5029128;28;20040;-35
2021/03/17 02:42:50;;;;;;;2.20;1.10;;;15.00;63.00;;;;;;5062854;28;20017;-35
2021/03/17 02:45:24;;;;;;;1.25;1.00;;;15.00;63.00;;;;;;5047079;28;20090;-35
2021/03/17 02:47:56;;;;;;;1.38;1.00;;;15.00;63.00;;;;;;5048885;28;20029;-35
2021/03/17 02:50:22;;;;;;;1.20;0.85;;;15.00;63.10;;;;;;5083210;28;20028;-35
2021/03/17 02:52:51;;;;;;;1.70;1.10;;;14.90;63.10;;;;;;5048130;28;20024;-36
2021/03/17 02:55:18;;;;;;;1.52;1.05;;;15.00;63.20;;;;;;5083238;28;20021;-35
2021/03/17 02:57:45;;;;;;;1.25;0.90;;;15.00;63.10;;;;;;5047694;28;20029;-35
2021/03/17 03:00:13;;;;;;;1.10;0.70;;;15.00;63.00;;;;;;5045317;28;20087;-35
2021/03/17 03:02:42;;;;;;;1.80;1.00;;;15.00;63.60;;;;;;5030018;28;20053;-35
2021/03/17 03:05:09;;;;;;;1.30;0.88;;;15.00;62.90;;;;;;5025254;28;20064;-36
2021/03/17 03:07:36;;;;;;;1.35;0.93;;;15.00;62.80;;;;;;5043039;28;20036;-35
2021/03/17 03:10:03;;;;;;;1.77;1.13;;;15.00;62.90;;;;;;5042930;28;20101;-35
2021/03/17 03:12:30;;;;;;;1.85;1.10;;;15.00;63.00;;;;;;5042527;28;20101;-34
2021/03/17 03:14:56;;;;;;;1.20;0.90;;;14.90;63.00;;;;;;5042923;28;20033;-35
2021/03/17 03:17:23;;;;;;;1.40;0.98;;;14.90;63.00;;;;;;5025275;28;20356;-35
2021/03/17 03:19:51;;;;;;;1.00;0.73;;;14.90;63.10;;;;;;5043044;28;20018;-35
2021/03/17 03:22:17;;;;;;;1.35;0.80;;;15.00;63.10;;;;;;5044640;28;20036;-34
2021/03/17 03:24:44;;;;;;;1.00;0.88;;;14.90;63.00;;;;;;5061254;28;20059;-35
2021/03/17 03:27:10;;;;;;;1.02;0.90;;;14.90;63.10;;;;;;5058113;28;20021;-35
2021/03/17 03:29:36;;;;;;;1.23;0.90;;;14.90;63.20;;;;;;5061533;28;20111;-35
2021/03/17 03:32:04;;;;;;;1.20;0.95;;;14.90;63.20;;;;;;5055056;28;20026;-35
2021/03/17 03:34:30;;;;;;;1.00;0.80;;;14.90;63.20;;;;;;5061019;28;20029;-34
2021/03/17 03:36:56;;;;;;;1.15;0.88;;;14.90;63.30;;;;;;5050504;28;20033;-35
2021/03/17 03:39:23;;;;;;;1.15;0.95;;;14.90;63.30;;;;;;5062777;28;20488;-36
2021/03/17 03:41:49;;;;;;;1.17;0.90;;;14.90;63.40;;;;;;5062519;28;20056;-35
2021/03/17 03:44:15;;;;;;;1.30;0.85;;;14.90;63.30;;;;;;5062478;28;20037;-35
2021/03/17 03:46:41;;;;;;;1.00;0.90;;;14.90;63.20;;;;;;5062557;28;20049;-35
2021/03/17 03:49:07;;;;;;;0.90;0.70;;;14.90;63.30;;;;;;5062702;28;20099;-35
2021/03/17 03:51:40;;;;;;;1.73;0.88;;;14.90;63.30;;;;;;5044594;28;20025;-35
2021/03/17 03:54:08;;;;;;;0.90;0.70;;;14.90;63.30;;;;;;5044607;28;20036;-35
2021/03/17 03:57:08;;;;;;;1.25;1.00;;;14.90;63.20;;;;;;5054635;28;20482;-36
2021/03/17 03:59:42;;;;;;;1.48;0.90;;;14.90;63.40;;;;;;4942298;29;20079;-36
2021/03/17 04:02:11;;;;;;;1.08;0.80;;;14.90;63.30;;;;;;4928502;29;20030;-36
2021/03/17 04:04:38;;;;;;;1.13;0.60;;;14.90;63.40;;;;;;4914521;29;20079;-35
2021/03/17 04:07:04;;;;;;;;;;;14.90;63.20;;;;;;4946308;29;20056;-35
2021/03/17 04:09:57;;;;;;;1.25;0.93;;;14.90;63.20;;;;;;4946049;29;19906;-35
2021/03/17 04:12:23;;;;;;;1.40;0.93;;;14.90;63.20;;;;;;4931555;29;20051;-35
2021/03/17 04:14:51;;;;;;;0.98;0.77;;;14.80;63.40;;;;;;4929975;29;20031;-35
2021/03/17 04:17:22;;;;;;;1.17;0.82;;;14.80;63.30;;;;;;4945895;29;20067;-36
2021/03/17 04:19:49;;;;;;;1.27;1.00;;;14.90;63.30;;;;;;4945889;29;20032;-36
2021/03/17 04:22:17;;;;;;;1.23;0.73;;;14.90;63.30;;;;;;4929722;29;20028;-35
2021/03/17 04:24:43;;;;;;;1.33;0.93;;;14.80;63.30;;;;;;4914182;29;20500;-36
2021/03/17 04:27:10;;;;;;;1.25;0.88;;;14.80;63.30;;;;;;4930070;29;20039;-36
2021/03/17 04:29:36;;;;;;;1.08;0.90;;;14.90;63.20;;;;;;4961452;29;20039;-36
2021/03/17 04:32:03;;;;;;;1.10;0.80;;;14.90;63.10;;;;;;4964538;29;20043;-36
2021/03/17 04:34:29;;;;;;;2.67;1.00;;;14.80;63.20;;;;;;4948517;29;20118;-35
2021/03/17 04:36:55;;;;;;;2.28;1.08;;;14.80;63.40;;;;;;5022220;28;20040;-36
2021/03/17 04:39:22;;;;;;;0.90;0.80;;;14.80;63.50;;;;;;5027812;28;20029;-36
2021/03/17 04:41:48;;;;;;;1.15;0.85;;;14.80;63.50;;;;;;5045358;28;20082;-36
2021/03/17 04:44:15;;;;;;;1.35;1.00;;;14.80;63.50;;;;;;5027646;28;20073;-36
2021/03/17 04:46:42;;;;;;;0.93;0.70;;;14.80;63.60;;;;;;5045074;28;20561;-36
2021/03/17 04:49:09;;;;;;;1.85;0.75;;;14.80;63.50;;;;;;5035692;28;20029;-35
2021/03/17 04:51:35;;;;;;;0.98;0.80;;;14.80;63.70;;;;;;5047284;28;20052;-36
2021/03/17 04:54:01;;;;;;;1.00;0.90;;;14.80;63.60;;;;;;5047158;28;20064;-36
2021/03/17 04:56:28;;;;;;;1.20;0.90;;;14.80;63.40;;;;;;5047093;28;20079;-36
2021/03/17 04:58:54;;;;;;;0.93;0.77;;;14.80;63.40;;;;;;5030844;28;20025;-36
2021/03/17 05:01:20;;;;;;;1.20;0.85;;;14.80;63.30;;;;;;5043401;28;20053;-36
2021/03/17 05:03:46;;;;;;;1.25;0.90;;;14.80;63.30;;;;;;5011043;28;20029;-36
2021/03/17 05:06:12;;;;;;;1.00;0.90;;;14.80;63.40;;;;;;5058065;28;20028;-36
2021/03/17 05:08:41;;;;;;;1.52;0.93;;;14.80;63.40;;;;;;5046957;28;20034;-36
2021/03/17 05:11:07;;;;;;;1.42;0.90;;;14.80;63.40;;;;;;5046828;28;20084;-37
2021/03/17 05:13:34;;;;;;;1.10;1.00;;;14.80;63.40;;;;;;5029295;28;20033;-36
2021/03/17 05:16:00;;;;;;;0.90;0.85;;;14.80;63.30;;;;;;5047016;28;20054;-36
2021/03/17 05:18:26;;;;;;;1.00;0.90;;;14.80;63.40;;;;;;5030499;28;20061;-36
2021/03/17 05:20:53;;;;;;;0.90;0.70;;;14.80;63.50;;;;;;5030014;28;20033;-36
2021/03/17 05:23:19;;;;;;;1.60;0.90;;;14.80;63.50;;;;;;5048116;28;20124;-36
2021/03/17 05:25:46;;;;;;;1.13;0.90;;;14.70;63.50;;;;;;5029998;28;20085;-36
2021/03/17 05:28:13;;;;;;;1.70;0.90;;;14.70;63.60;;;;;;5030275;28;20092;-36
2021/03/17 05:30:40;;;;;;;1.90;0.95;;;14.70;63.70;;;;;;5029915;28;20032;-36
2021/03/17 05:33:08;;;;;;;1.92;0.90;;;14.70;63.70;;;;;;5064151;28;20033;-36
2021/03/17 05:35:35;;;;;;;1.48;0.77;;;14.70;63.70;;;;;;5064380;28;20112;-36
2021/03/17 05:38:01;;;;;;;1.30;0.80;;;14.70;63.70;;;;;;5030645;28;20434;-36
2021/03/17 05:40:28;;;;;;;1.38;0.93;;;14.70;63.60;;;;;;5044102;28;20286;-36
2021/03/17 05:42:54;;;;;;;1.05;0.90;;;14.70;63.70;;;;;;5026793;28;20021;-36
2021/03/17 05:45:21;;;;;;;1.35;0.90;;;14.70;63.60;;;;;;5044304;28;20035;-36
2021/03/17 05:47:49;;;;;;;0.73;0.73;;;14.70;63.70;;;;;;5043690;28;20025;-36
2021/03/17 05:50:17;;;;;;;1.17;0.93;;;14.70;63.50;;;;;;5026456;28;20270;-36
2021/03/17 05:52:43;;;;;;;1.02;0.93;;;14.70;63.50;;;;;;5043914;28;20029;-36
2021/03/17 05:55:10;;;;;;;1.27;1.15;;;14.80;63.50;;;;;;5044018;28;20029;-35
2021/03/17 05:57:37;;;;;;;1.23;0.95;;;14.80;63.40;;;;;;5043678;28;20037;-35
2021/03/17 06:00:05;;;;;;;1.15;0.75;;;14.80;63.40;;;;;;5043931;28;20060;-36
2021/03/17 06:02:32;;;;;;;1.73;1.08;;;14.80;63.40;;;;;;5026143;28;20033;-35
2021/03/17 06:04:59;;;;;;;1.13;0.90;;;14.70;63.30;;;;;;5049701;28;20059;-36
2021/03/17 06:07:25;;;;;;;1.45;1.00;;;14.70;63.30;;;;;;5065700;28;20024;-35
2021/03/17 06:09:55;;;;;;;1.75;1.10;;;14.70;63.60;;;;;;5083831;28;20029;-35
2021/03/17 06:12:22;;;;;;;1.70;1.00;;;14.70;63.70;;;;;;5083428;28;20068;-35
2021/03/17 06:14:50;;;;;;;1.00;0.80;;;14.70;63.80;;;;;;5083546;28;20028;-35
2021/03/17 06:17:22;;;;;;;1.80;1.00;;;14.70;63.80;;;;;;5083110;28;20071;-35
2021/03/17 06:19:51;;;;;;;1.13;0.90;;;14.70;63.70;;;;;;5083762;28;20019;-36
2021/03/17 06:22:17;;;;;;;1.73;1.00;;;14.70;63.70;;;;;;5065390;28;20032;-36
2021/03/17 06:24:43;;;;;;;2.47;0.98;;;14.70;63.60;;;;;;5048598;28;20040;-35
2021/03/17 06:27:12;;;;;;;2.28;1.15;;;14.70;63.70;;;;;;5052738;28;20115;-36
2021/03/17 06:29:39;;;;;;;1.45;0.98;;;14.70;63.60;;;;;;5029269;28;20029;-36
2021/03/17 06:32:08;;;;;;;1.98;1.23;;;14.70;63.60;;;;;;5035437;28;20033;-35
2021/03/17 06:34:34;;;;;;;1.05;0.90;;;14.70;63.70;;;;;;5043397;28;20100;-35
2021/03/17 06:37:01;;;;;;;3.08;1.00;;;14.70;63.70;;;;;;5042855;28;20057;-35
2021/03/17 06:39:34;;;;;;;1.17;0.90;;;14.70;63.80;;;;;;5047106;28;20085;-35
2021/03/17 06:42:00;;;;;;;2.20;1.10;;;14.70;63.70;;;;;;5054168;28;20052;-35
2021/03/17 06:44:28;;;;;;;1.52;1.00;;;14.70;63.60;;;;;;5062972;28;20048;-36
2021/03/17 06:47:19;;;;;;;2.08;1.10;;;14.70;63.60;;;;;;5063110;28;20048;-35
2021/03/17 06:49:47;;;;;;;1.40;0.90;;;14.70;63.60;;;;;;5063160;28;20029;-36
2021/03/17 06:52:33;;;;;;;2.38;0.95;;;14.70;63.60;;;;;;5045212;28;20063;-35
2021/03/17 06:55:12;;;;;;;2.65;1.20;;;14.70;63.60;;;;;;5063066;28;20032;-36
2021/03/17 06:57:41;;;;;;;1.73;1.10;;;14.60;63.60;;;;;;5026284;28;20096;-36
2021/03/17 07:00:28;;;;;;;1.40;0.90;;;14.70;63.60;;;;;;5083209;28;20021;-35
2021/03/17 07:03:05;;;;;;;2.08;1.38;;;14.60;63.80;;;;;;5065946;28;20029;-36
2021/03/17 07:05:31;;;;;;;1.63;1.03;;;14.60;63.90;;;;;;5062822;28;20417;-35
2021/03/17 07:07:58;;;;;;;1.60;1.00;;;14.60;63.90;;;;;;5062649;28;20836;-35
2021/03/17 07:10:35;;;;;;;;;;;14.60;63.80;;;;;;5045745;28;20045;-35
2021/03/17 07:13:01;;;;;;;1.77;0.90;;;14.60;63.70;;;;;;5062725;28;19976;-35
2021/03/17 07:15:27;;;;;;;1.40;1.07;;;14.60;63.80;;;;;;5062953;28;20037;-36
2021/03/17 07:18:11;;;;;;;1.73;1.13;;;14.60;63.90;;;;;;5062386;28;20272;-36
2021/03/17 07:20:44;;;;;;;1.92;1.02;;;14.60;63.90;;;;;;5062964;28;20056;-36
2021/03/17 07:23:24;;;;;;;1.73;1.08;;;14.60;63.90;;;;;;5062495;28;20059;-35
2021/03/17 07:26:10;;;;;;;1.70;1.05;;;14.50;64.00;;;;;;5043616;28;20033;-35
2021/03/17 07:28:51;;;;;;;2.65;1.00;;;14.60;64.10;;;;;;5064144;28;20501;-35
2021/03/17 07:31:18;;;;;;;1.90;1.00;;;14.60;64.00;;;;;;5062748;28;20835;-35
2021/03/17 07:33:44;;;;;;;2.15;1.10;;;14.60;64.00;;;;;;5058937;28;20022;-36
2021/03/17 07:36:11;;;;;;;2.63;1.15;;;14.50;64.00;;;;;;5053866;28;20052;-36
2021/03/17 07:38:37;;;;;;;1.52;1.00;;;14.60;64.00;;;;;;5065766;28;20040;-36
2021/03/17 07:41:03;;;;;;;1.88;1.10;;;14.60;63.90;;;;;;5048687;28;20028;-36
2021/03/17 07:43:30;;;;;;;2.15;1.20;;;14.60;64.00;;;;;;5066395;28;20056;-36
2021/03/17 07:45:56;;;;;;;2.38;1.13;;;14.60;63.90;;;;;;5066686;28;20059;-35
2021/03/17 07:48:22;;;;;;;2.33;1.00;;;14.60;63.90;;;;;;5048389;28;20043;-35
2021/03/17 07:50:48;;;;;;;1.55;0.80;;;14.60;63.90;;;;;;5066404;28;20029;-37
2021/03/17 07:53:23;;;;;;;1.83;1.20;;;14.60;64.00;;;;;;5048146;28;20064;-36
2021/03/17 07:55:50;;;;;;;1.90;1.00;;;14.50;63.90;;;;;;5066155;28;20020;-36
2021/03/17 07:58:16;;;;;;;2.88;1.63;;;14.50;64.00;;;;;;5065903;28;20036;-36
2021/03/17 08:00:43;;;;;;;2.35;1.25;;;14.60;63.90;;;;;;5066188;28;20557;-37
2021/03/17 08:03:12;;;;;;;3.50;1.10;;;14.60;64.00;;;;;;5047080;28;20039;-36
2021/03/17 08:05:39;;;;;;;2.97;1.40;;;14.60;64.00;;;;;;5054614;28;20273;-36
2021/03/17 08:08:06;;;;;;;2.92;1.23;;;14.50;64.20;;;;;;5031419;28;20076;-36
2021/03/17 08:10:32;;;;;;;2.47;1.25;;;14.50;64.10;;;;;;5065972;28;20036;-36
2021/03/17 08:12:59;;;;;;;2.17;1.20;;;14.50;64.20;;;;;;5031444;28;20044;-37
2021/03/17 08:15:25;;;;;;;2.28;1.48;;;14.50;64.20;;;;;;5047992;28;20025;-36
2021/03/17 08:17:51;;;;;;;2.60;1.48;;;14.50;64.10;;;;;;5047645;28;20045;-36
2021/03/17 08:20:17;;;;;;;2.85;1.38;;;14.50;64.20;;;;;;5065820;28;20033;-36
2021/03/17 08:22:43;;;;;;;2.28;1.45;;;14.50;64.30;;;;;;5065642;28;20047;-36
2021/03/17 08:25:10;;;;;;;2.65;1.42;;;14.50;64.30;;;;;;5065552;28;20057;-36
2021/03/17 08:27:37;;;;;;;2.80;1.40;;;14.50;64.30;;;;;;5082071;28;20040;-36
2021/03/17 08:30:11;;;;;;;3.22;1.48;;;14.50;64.30;;;;;;5067602;28;20032;-36
2021/03/17 08:32:53;;;;;;;2.97;1.38;;;14.50;64.30;;;;;;5070958;28;20036;-36
2021/03/17 08:35:19;;;;;;;2.70;1.40;;;14.50;64.20;;;;;;5060199;28;20029;-36
2021/03/17 08:37:53;;;;;;;3.65;1.63;;;14.50;64.20;;;;;;5027508;28;20075;-36
2021/03/17 08:40:39;;;;;;;1.75;1.25;;;14.50;64.20;;;;;;5027741;28;20034;-36
2021/03/17 08:43:50;;;;;;;2.20;1.20;;;14.50;64.20;;;;;;5038157;28;20091;-36
2021/03/17 08:46:18;;;;;;;2.80;1.60;;;14.50;64.00;;;;;;5043117;28;20033;-36
2021/03/17 08:48:56;;;;;;;;;;;14.50;64.10;;;;;;5045293;28;20025;-36
2021/03/17 08:51:47;;;;;;;3.05;1.40;;;14.50;64.00;;;;;;5027678;28;19916;-36
2021/03/17 08:54:31;;;;;;;2.33;1.40;;;14.50;64.10;;;;;;5056372;28;20028;-36
2021/03/17 08:57:02;;;;;;;3.15;1.40;;;14.50;64.30;;;;;;5067538;28;20028;-36
2021/03/17 08:59:55;;;;;;;3.53;1.48;;;14.40;64.30;;;;;;5085013;28;20036;-36
2021/03/17 09:02:24;;;;;;;3.47;1.85;;;14.50;64.40;;;;;;5060768;28;20040;-36
2021/03/17 09:04:54;;;;;;;2.58;1.40;;;14.40;64.30;;;;;;5064999;28;20116;-36
2021/03/17 09:07:23;;;;;;;2.55;1.50;;;14.50;64.30;;;;;;5064849;28;20028;-36
2021/03/17 09:09:56;;;;;;;2.83;1.63;;;14.50;64.20;;;;;;5064359;28;20092;-36
2021/03/17 09:12:25;;;;;;;3.50;1.67;;;14.50;64.30;;;;;;5064717;28;20044;-36
2021/03/17 09:14:52;;;;;;;2.80;1.50;;;14.40;64.40;;;;;;5064768;28;20060;-36
2021/03/17 09:17:22;;;;;;;2.95;1.70;;;14.40;64.50;;;;;;5064821;28;20063;-36
2021/03/17 09:20:03;;;;;;;2.13;1.50;;;14.50;64.30;;;;;;5064507;28;20080;-36
2021/03/17 09:22:31;;;;;;;3.92;1.60;;;14.40;64.30;;;;;;5064675;28;20040;-36
2021/03/17 09:24:57;;;;;;;3.17;1.50;;;14.40;64.30;;;;;;5064023;28;20033;-36
2021/03/17 09:27:24;;;;;;;2.67;1.45;;;14.40;64.60;;;;;;5061063;28;20036;-36
2021/03/17 09:29:50;;;;;;;2.80;1.50;;;14.40;64.50;;;;;;5069385;28;20033;-36
2021/03/17 09:32:17;;;;;;;2.50;1.80;;;14.40;64.50;;;;;;5064370;28;20025;-36
2021/03/17 09:34:43;;;;;;;4.18;1.70;;;14.40;64.50;;;;;;5064218;28;20017;-36
2021/03/17 09:37:10;;;;;;;2.75;1.42;;;14.40;64.40;;;;;;5046512;28;20574;-36
2021/03/17 09:39:37;;;;;;;2.80;1.70;;;14.40;64.30;;;;;;5058061;28;20041;-36
2021/03/17 09:42:04;;;;;;;2.95;1.70;;;14.40;64.40;;;;;;5063816;28;20033;-36
2021/03/17 09:44:30;;;;;;;3.28;1.63;;;14.40;64.40;;;;;;5064175;28;20393;-36
2021/03/17 09:46:56;;;;;;;2.85;1.70;;;14.40;64.30;;;;;;5064152;28;20049;-36
2021/03/17 09:49:24;;;;;;;2.78;1.83;;;14.40;64.40;;;;;;5063894;28;20063;-36
2021/03/17 09:51:54;;;;;;;3.38;1.90;;;14.40;64.60;;;;;;5045921;28;20023;-37
2021/03/17 09:54:22;;;;;;;2.45;1.50;;;14.40;64.60;;;;;;5064039;28;20033;-36
2021/03/17 09:56:59;;;;;;;2.55;1.80;;;14.40;64.50;;;;;;5073523;28;20032;-35
2021/03/17 09:59:31;;;;;;;4.17;1.90;;;14.40;64.50;;;;;;5082792;28;20092;-35
2021/03/17 10:02:02;;;;;;;3.83;1.98;;;14.40;64.60;;;;;;5074713;28;20029;-36
2021/03/17 10:04:44;;;;;;;3.10;1.70;;;14.40;64.60;;;;;;5063769;28;20105;-36
2021/03/17 10:07:16;;;;;;;3.47;1.73;;;14.40;64.60;;;;;;5063779;28;20029;-36
2021/03/17 10:09:43;;;;;;;2.85;1.77;;;14.30;64.70;;;;;;5063567;28;20036;-36
2021/03/17 10:12:10;;;;;;;3.50;1.52;;;14.40;64.60;;;;;;5062702;28;20098;-36
2021/03/17 10:14:38;;;;;;;4.05;1.85;;;14.40;64.50;;;;;;5063649;28;20036;-36
2021/03/17 10:17:05;;;;;;;2.80;1.60;;;14.40;64.40;;;;;;5063628;28;20028;-36
2021/03/17 10:19:32;;;;;;;2.65;1.75;;;14.40;64.60;;;;;;5063128;28;20033;-36
2021/03/17 10:21:58;;;;;;;2.83;1.67;;;14.40;64.60;;;;;;5063701;28;20033;-36
2021/03/17 10:24:37;;;;;;;4.70;2.03;;;14.40;64.50;;;;;;5063349;28;20044;-35
2021/03/17 10:27:11;;;;;;;3.58;2.05;;;14.40;64.60;;;;;;5063194;28;20052;-36
2021/03/17 10:29:38;;;;;;;2.30;1.48;;;14.40;64.60;;;;;;5063021;28;20044;-36
2021/03/17 10:32:06;;;;;;;1.58;1.25;;;14.40;64.50;;;;;;5053195;28;20036;-36
2021/03/17 10:34:32;;;;;;;2.38;1.50;;;14.40;64.50;;;;;;5025557;28;20033;-36
2021/03/17 10:36:58;;;;;;;3.17;2.00;;;14.40;64.60;;;;;;5025610;28;20037;-35
2021/03/17 10:39:28;;;;;;;2.95;1.58;;;14.40;64.50;;;;;;5043134;28;20052;-36
2021/03/17 10:41:54;;;;;;;2.60;1.50;;;14.40;64.50;;;;;;5042768;28;20029;-36
2021/03/17 10:44:23;;;;;;;2.53;1.77;;;14.40;64.50;;;;;;5026710;28;20041;-36
2021/03/17 10:47:05;;;;;;;3.65;2.10;;;14.30;64.50;;;;;;5057978;28;20033;-35
2021/03/17 10:49:33;;;;;;;2.53;1.85;;;14.30;64.50;;;;;;5062779;28;20482;-36
2021/03/17 10:51:59;;;;;;;2.40;1.23;;;14.40;64.60;;;;;;5062869;28;20041;-36
2021/03/17 10:54:35;;;;;;;3.53;1.52;;;14.30;64.50;;;;;;5062820;28;20052;-36
2021/03/17 10:57:02;;;;;;;2.78;1.80;;;14.30;64.70;;;;;;5062841;28;20021;-36
2021/03/17 10:59:38;;;;;;;4.05;1.98;;;14.30;64.70;;;;;;5062929;28;20033;-36
2021/03/17 11:02:23;;;;;;;2.78;1.73;;;14.30;64.50;;;;;;5062622;28;20095;-36
2021/03/17 11:05:09;;;;;;;2.50;1.70;;;14.30;64.80;;;;;;5062829;28;20110;-36
2021/03/17 11:07:51;;;;;;;3.67;1.83;;;14.30;64.60;;;;;;5062603;28;20053;-36
2021/03/17 11:10:32;;;;;;;3.08;1.67;;;14.30;64.70;;;;;;5062525;28;20029;-36
2021/03/17 11:13:25;;;;;;;2.72;1.55;;;14.30;64.80;;;;;;5049156;28;20052;-36
2021/03/17 11:15:55;;;;;;;2.97;2.13;;;14.30;64.70;;;;;;5048837;28;20025;-36
2021/03/17 11:18:44;;;;;;;3.17;1.80;;;14.30;64.70;;;;;;5066690;28;20029;-36
2021/03/17 11:21:22;;;;;;;2.47;1.50;;;14.30;64.90;;;;;;5048341;28;20116;-35
2021/03/17 11:23:48;;;;;;;3.28;1.77;;;14.30;64.90;;;;;;5054498;28;20153;-36
2021/03/17 11:26:24;;;;;;;2.97;1.80;;;14.30;64.90;;;;;;5081615;28;20031;-36
2021/03/17 11:28:50;;;;;;;3.88;1.90;;;14.30;64.80;;;;;;5066664;28;20025;-36
2021/03/17 11:31:25;;;;;;;3.28;1.90;;;14.30;64.60;;;;;;5066420;28;20057;-36
2021/03/17 11:33:51;;;;;;;2.75;1.80;;;14.30;64.70;;;;;;5066262;28;20024;-36
2021/03/17 11:36:17;;;;;;;4.13;1.70;;;14.30;64.70;;;;;;5066491;28;20813;-35
2021/03/17 11:38:43;;;;;;;3.30;1.70;;;14.30;65.00;;;;;;5064766;28;20034;-36
2021/03/17 11:41:09;;;;;;;3.00;1.60;;;14.30;64.80;;;;;;5052545;28;20029;-36
2021/03/17 11:43:35;;;;;;;2.58;1.63;;;14.30;64.80;;;;;;5066493;28;20029;-36
2021/03/17 11:46:02;;;;;;;2.10;1.63;;;14.30;64.80;;;;;;5066352;28;20072;-36
2021/03/17 11:48:28;;;;;;;2.80;1.87;;;14.30;64.80;;;;;;5066363;28;20017;-36
2021/03/17 11:50:54;;;;;;;4.20;2.17;;;14.30;64.70;;;;;;5065846;28;20040;-36
2021/03/17 11:53:21;;;;;;;2.95;1.70;;;14.30;64.70;;;;;;5066212;28;20055;-36
2021/03/17 11:55:47;;;;;;;1.77;1.40;;;14.30;64.70;;;;;;5049597;28;20029;-36
2021/03/17 11:58:13;;;;;;;2.95;1.90;;;14.30;64.80;;;;;;5086246;28;20024;-36
2021/03/17 12:00:40;;;;;;;3.15;2.03;;;14.30;64.70;;;;;;5086020;28;20029;-36
2021/03/17 12:03:06;;;;;;;2.67;1.58;;;14.30;64.70;;;;;;5066846;28;20048;-36
2021/03/17 12:05:33;;;;;;;1.98;1.13;;;14.30;65.00;;;;;;5031331;28;20025;-35
2021/03/17 12:07:59;;;;;;;2.55;1.70;;;14.30;65.10;;;;;;5065768;28;20032;-36
2021/03/17 12:10:25;;;;;;;2.35;1.70;;;14.30;65.20;;;;;;5065680;28;20025;-36
2021/03/17 12:12:51;;;;;;;3.45;2.10;;;14.30;65.80;;;;;;5065592;28;20045;-36
2021/03/17 12:15:19;;;;;;;4.07;1.58;;;14.30;64.90;;;;;;5065972;28;20108;-36
2021/03/17 12:17:46;;;;;;;2.58;1.65;;;14.30;65.10;;;;;;5065854;28;20028;-35
2021/03/17 12:20:12;;;;;;;2.45;1.30;;;14.30;65.00;;;;;;5047750;28;20041;-36
2021/03/17 12:22:38;;;;;;;2.50;1.70;;;14.30;65.00;;;;;;5064512;28;20025;-35
2021/03/17 12:25:05;;;;;;;2.40;1.58;;;14.30;65.10;;;;;;5065531;28;20064;-35
2021/03/17 12:27:32;;;;;;;2.45;1.58;;;14.30;64.90;;;;;;5065698;28;20021;-36
2021/03/17 12:29:58;;;;;;;2.72;1.63;;;14.30;64.80;;;;;;5047696;28;20044;-36
2021/03/17 12:32:24;;;;;;;3.22;1.63;;;14.30;65.00;;;;;;5052214;28;20026;-36
2021/03/17 12:34:51;;;;;;;2.70;1.58;;;14.30;65.00;;;;;;5050112;28;20033;-36
2021/03/17 12:37:17;;;;;;;2.65;1.60;;;14.20;65.20;;;;;;5061708;28;20028;-36
2021/03/17 12:39:43;;;;;;;2.05;1.35;;;14.20;65.20;;;;;;5065137;28;20035;-36
2021/03/17 12:42:09;;;;;;;1.95;1.30;;;14.20;65.00;;;;;;5065029;28;20027;-36
2021/03/17 12:44:36;;;;;;;2.40;1.50;;;14.30;65.10;;;;;;5047130;28;20453;-36
2021/03/17 12:47:04;;;;;;;2.50;1.70;;;14.30;65.40;;;;;;5052282;28;20032;-36
2021/03/17 12:49:30;;;;;;;;;;;14.20;65.50;;;;;;5085564;28;20044;-36
2021/03/17 12:51:56;;;;;;;3.20;1.60;;;14.20;66.00;;;;;;5066734;28;19912;-36
2021/03/17 12:54:22;;;;;;;3.13;1.45;;;14.30;65.30;;;;;;5085037;28;20020;-36
2021/03/17 12:56:49;;;;;;;2.33;1.75;;;14.20;65.60;;;;;;5074857;28;20092;-36
2021/03/17 12:59:15;;;;;;;1.85;1.40;;;14.20;65.20;;;;;;5064844;28;20462;-36